Time;durP1;ratioP1;P1;durP2;ratioP2;P2;SDS_P1;SDS_P2;PMS_P1;PMS_P2;Temp;Humidity;BMP_temperature;BMP_pressure;BME280_temperature;BME280_humidity;BME280_pressure;Samples;Min_cycle;Max_cycle;Signal;HPM_P1;HPM_P2
2022/08/07 00:01:09;;;;;;;;;;;;;;;19.54;72.92;100482.30;1472580;88;21187;-83
2022/08/07 00:03:35;;;;;;;;;;;;;;;19.54;72.85;100476.11;1476242;88;20251;-82
2022/08/07 00:06:02;;;;;;;;;;;;;;;19.49;73.05;100478.05;1472694;87;20401;-82
2022/08/07 00:08:28;;;;;;;;;;;;;;;19.49;73.01;100481.26;1467795;88;20508;-84
2022/08/07 00:10:54;;;;;;;;;;;;;;;19.50;73.00;100474.84;1472392;88;20788;-83
2022/08/07 00:13:20;;;;;;;;;;;;;;;19.46;73.09;100476.30;1478136;88;20401;-83
2022/08/07 00:15:47;;;;;;;;;;;;;;;19.45;73.05;100481.34;1474492;88;20311;-83
2022/08/07 00:18:17;;;;;;;;;;;;;;;19.46;72.97;100476.30;1478571;88;20362;-83
2022/08/07 00:20:43;;;;;;;;;;;;;;;19.42;73.20;100477.72;1475584;88;20349;-83
2022/08/07 00:23:09;;;;;;;;;;;;;;;19.41;73.21;100478.24;1479963;88;20728;-83
2022/08/07 00:25:35;;;;;;;;;;;;;;;19.37;73.25;100479.17;1474059;87;20288;-83
2022/08/07 00:28:02;;;;;;;;;;;;;;;19.35;73.32;100478.55;1474646;87;20363;-83
2022/08/07 00:30:29;;;;;;;;;;;;;;;19.36;73.33;100476.68;1473299;87;20237;-83
2022/08/07 00:32:57;;;;;;;;;;;;;;;19.31;73.42;100482.67;1481199;88;21624;-83
2022/08/07 00:35:23;;;;;;;;;;;;;;;19.36;73.14;100483.39;1471644;87;20400;-83
2022/08/07 00:37:50;;;;;;;;;;;;;;;19.37;73.09;100486.41;1468871;87;20244;-83
2022/08/07 00:40:16;;;;;;;;;;;;;;;19.34;73.09;100487.63;1472600;88;20288;-83
2022/08/07 00:42:41;;;;;;;;;;;;;;;19.29;72.99;100474.00;1476076;88;20295;-84
2022/08/07 00:45:09;;;;;;;;;;;;;;;19.27;72.97;100480.07;1485814;87;20834;-83
2022/08/07 00:47:35;;;;;;;;;;;;;;;19.27;72.90;100488.12;1472800;88;20266;-83
2022/08/07 00:50:01;;;;;;;;;;;;;;;19.25;72.93;100488.86;1477443;88;20408;-83
2022/08/07 00:52:27;;;;;;;;;;;;;;;19.23;72.62;100487.41;1476227;88;20882;-83
2022/08/07 00:54:53;;;;;;;;;;;;;;;19.22;72.48;100491.09;1479616;88;20260;-84
2022/08/07 00:57:20;;;;;;;;;;;;;;;19.15;72.51;100492.44;1474355;87;20304;-83
2022/08/07 00:59:46;;;;;;;;;;;;;;;19.08;72.47;100485.72;1481877;87;20430;-83
2022/08/07 01:02:13;;;;;;;;;;;;;;;19.09;72.42;100491.90;1479192;87;20266;-83
2022/08/07 01:04:39;;;;;;;;;;;;;;;19.07;72.26;100501.48;1475978;88;20295;-82
2022/08/07 01:07:05;;;;;;;;;;;;;;;19.04;72.16;100494.36;1489450;88;20400;-83
2022/08/07 01:09:32;;;;;;;;;;;;;;;18.98;72.19;100493.30;1476155;88;20356;-82
2022/08/07 01:11:59;;;;;;;;;;;;;;;18.98;72.04;100504.03;1481794;87;20266;-83
2022/08/07 01:14:25;;;;;;;;;;;;;;;18.96;71.87;100497.21;1480910;87;20310;-83
2022/08/07 01:16:52;;;;;;;;;;;;;;;18.99;71.82;100502.17;1484216;88;20574;-83
2022/08/07 01:19:20;;;;;;;;;;;;;;;18.93;71.52;100503.80;1483698;87;20243;-83
2022/08/07 01:21:48;;;;;;;;;;;;;;;18.90;71.58;100496.16;1470548;88;21587;-83
2022/08/07 01:24:15;;;;;;;;;;;;;;;18.87;71.42;100493.88;1475191;87;20465;-83
2022/08/07 01:26:41;;;;;;;;;;;;;;;18.87;71.38;100513.98;1473592;88;20388;-82
2022/08/07 01:29:09;;;;;;;;;;;;;;;18.84;71.29;100501.80;1488979;87;21017;-82
2022/08/07 01:31:37;;;;;;;;;;;;;;;18.80;71.14;100504.58;1486678;88;21463;-82
2022/08/07 01:34:04;;;;;;;;;;;;;;;18.70;71.24;100512.13;1484820;88;20296;-83
2022/08/07 01:36:31;;;;;;;;;;;;;;;18.69;71.15;100499.75;1484749;88;20296;-82
2022/08/07 01:38:57;;;;;;;;;;;;;;;18.66;71.14;100500.16;1480377;88;20838;-82
2022/08/07 01:41:24;;;;;;;;;;;;;;;18.63;71.11;100498.69;1484407;88;20266;-83
2022/08/07 01:43:50;;;;;;;;;;;;;;;18.62;71.18;100494.89;1488985;87;20295;-83
2022/08/07 01:46:19;;;;;;;;;;;;;;;18.57;71.02;100496.81;1491719;88;20295;-83
2022/08/07 01:48:46;;;;;;;;;;;;;;;18.56;71.12;100508.57;1491957;87;20273;-83
2022/08/07 01:51:15;;;;;;;;;;;;;;;18.49;71.09;100505.83;1488206;88;20304;-82
2022/08/07 01:53:44;;;;;;;;;;;;;;;18.48;70.98;100500.17;1480809;87;20266;-81
2022/08/07 01:56:13;;;;;;;;;;;;;;;18.45;70.93;100507.27;1479921;87;20736;-81
2022/08/07 01:58:43;;;;;;;;;;;;;;;18.41;70.93;100503.34;1489444;87;20295;-81
2022/08/07 02:01:12;;;;;;;;;;;;;;;18.40;70.70;100509.70;1489737;87;20392;-80
2022/08/07 02:03:42;;;;;;;;;;;;;;;18.35;70.54;100513.47;1488605;87;20787;-81
2022/08/07 02:06:11;;;;;;;;;;;;;;;18.36;70.53;100507.63;1479441;88;20259;-80
2022/08/07 02:08:39;;;;;;;;;;;;;;;18.36;70.33;100505.77;1495237;87;20280;-80
2022/08/07 02:11:07;;;;;;;;;;;;;;;18.33;70.27;100511.52;1480736;88;20266;-81
2022/08/07 02:13:34;;;;;;;;;;;;;;;18.30;70.11;100511.92;1486825;88;20941;-81
2022/08/07 02:16:03;;;;;;;;;;;;;;;18.31;69.94;100508.20;1485982;88;20296;-80
2022/08/07 02:18:32;;;;;;;;;;;;;;;18.31;69.71;100516.24;1485240;88;20251;-80
2022/08/07 02:21:00;;;;;;;;;;;;;;;18.29;69.49;100506.22;1484995;87;20460;-80
2022/08/07 02:23:26;;;;;;;;;;;;;;;18.23;69.35;100516.39;1478407;88;20451;-81
2022/08/07 02:25:54;;;;;;;;;;;;;;;18.23;69.38;100516.39;1480658;87;20780;-80
2022/08/07 02:28:21;;;;;;;;;;;;;;;18.17;69.12;100519.85;1476650;88;20392;-81
2022/08/07 02:30:47;;;;;;;;;;;;;;;18.17;69.05;100511.81;1483470;87;20809;-80
2022/08/07 02:33:15;;;;;;;;;;;;;;;18.18;68.74;100516.14;1474233;88;20258;-81
2022/08/07 02:35:42;;;;;;;;;;;;;;;18.15;68.72;100521.89;1489692;87;20273;-80
2022/08/07 02:38:09;;;;;;;;;;;;;;;18.07;68.45;100516.67;1484621;87;20385;-80
2022/08/07 02:40:37;;;;;;;;;;;;;;;18.12;68.35;100523.62;1485866;87;20427;-80
2022/08/07 02:43:04;;;;;;;;;;;;;;;18.12;68.09;100522.28;1490243;88;20333;-81
2022/08/07 02:45:30;;;;;;;;;;;;;;;18.11;67.93;100509.92;1487760;87;20304;-81
2022/08/07 02:47:56;;;;;;;;;;;;;;;18.10;67.61;100525.17;1490726;88;20280;-81
2022/08/07 02:50:22;;;;;;;;;;;;;;;18.17;67.45;100523.88;1491402;87;20317;-81
2022/08/07 02:52:58;;;;;;;;;;;;;;;18.13;67.31;100521.28;1486006;87;20281;-81
2022/08/07 02:55:26;;;;;;;;;;;;;;;18.12;67.11;100525.78;1478765;87;20854;-81
2022/08/07 02:57:54;;;;;;;;;;;;;;;18.17;67.08;100521.19;1485760;87;20253;-81
2022/08/07 03:00:21;;;;;;;;;;;;;;;18.21;66.61;100521.95;1493500;87;20288;-80
2022/08/07 03:02:48;;;;;;;;;;;;;;;18.23;66.48;100524.42;1488620;87;20318;-81
2022/08/07 03:05:15;;;;;;;;;;;;;;;18.25;66.45;100532.59;1486968;87;20466;-80
2022/08/07 03:07:43;;;;;;;;;;;;;;;18.26;66.14;100524.03;1487266;88;20280;-81
2022/08/07 03:10:10;;;;;;;;;;;;;;;18.25;65.85;100531.24;1488500;88;20295;-81
2022/08/07 03:12:37;;;;;;;;;;;;;;;18.22;65.62;100526.80;1478838;87;20281;-81
2022/08/07 03:15:05;;;;;;;;;;;;;;;18.22;65.54;100524.13;1485711;88;20377;-81
2022/08/07 03:17:31;;;;;;;;;;;;;;;18.20;65.49;100524.30;1497248;87;20808;-81
2022/08/07 03:19:57;;;;;;;;;;;;;;;18.24;65.49;100531.42;1492157;87;20363;-81
2022/08/07 03:22:23;;;;;;;;;;;;;;;18.23;65.33;100531.12;1484760;88;20444;-82
2022/08/07 03:24:50;;;;;;;;;;;;;;;18.18;65.24;100534.89;1476263;87;20273;-81
2022/08/07 03:27:16;;;;;;;;;;;;;;;18.21;65.25;100539.86;1471573;88;20897;-80
2022/08/07 03:29:50;;;;;;;;;;;;;;;18.16;65.35;100539.12;1473953;88;20252;-83
2022/08/07 03:32:20;;;;;;;;;;;;;;;18.16;65.36;100536.44;1479077;87;20333;-83
2022/08/07 03:34:49;;;;;;;;;;;;;;;18.19;65.33;100539.24;1480830;87;20318;-83
2022/08/07 03:37:19;;;;;;;;;;;;;;;18.17;65.01;100535.92;1471392;87;20347;-82
2022/08/07 03:39:46;;;;;;;;;;;;;;;18.14;65.07;100536.31;1472825;88;20286;-82
2022/08/07 03:42:14;;;;;;;;;;;;;;;18.14;64.90;100543.01;1478520;88;20296;-82
2022/08/07 03:44:40;;;;;;;;;;;;;;;18.17;64.93;100546.64;1473737;88;20200;-82
2022/08/07 03:47:07;;;;;;;;;;;;;;;18.17;64.77;100538.60;1483019;87;20311;-82
2022/08/07 03:49:34;;;;;;;;;;;;;;;18.17;64.51;100544.78;1484243;87;20283;-81
2022/08/07 03:52:00;;;;;;;;;;;;;;;18.13;64.42;100544.05;1479554;88;20318;-82
2022/08/07 03:54:26;;;;;;;;;;;;;;;18.12;64.40;100549.06;1469376;88;20875;-83
2022/08/07 03:56:54;;;;;;;;;;;;;;;18.15;64.13;100545.99;1479689;87;20400;-82
2022/08/07 03:59:21;;;;;;;;;;;;;;;18.16;63.97;100558.38;1476574;88;20347;-82
2022/08/07 04:01:48;;;;;;;;;;;;;;;18.21;63.90;100555.44;1474114;87;20237;-82
2022/08/07 04:04:17;;;;;;;;;;;;;;;18.21;63.58;100556.78;1476729;87;20288;-82
2022/08/07 04:06:44;;;;;;;;;;;;;;;18.22;63.70;100555.75;1466341;88;20388;-82
2022/08/07 04:09:12;;;;;;;;;;;;;;;18.26;63.62;100564.22;1477662;88;20229;-83
2022/08/07 04:11:38;;;;;;;;;;;;;;;18.25;63.52;100561.23;1478903;88;20379;-81
2022/08/07 04:14:05;;;;;;;;;;;;;;;18.18;63.10;100554.49;1476897;87;20879;-82
2022/08/07 04:16:32;;;;;;;;;;;;;;;18.23;63.46;100559.25;1487563;87;20363;-82
2022/08/07 04:18:59;;;;;;;;;;;;;;;18.22;63.26;100562.45;1474332;88;20341;-82
2022/08/07 04:21:25;;;;;;;;;;;;;;;18.21;63.43;100567.98;1482945;88;20251;-82
2022/08/07 04:23:51;;;;;;;;;;;;;;;18.17;62.87;100560.03;1480790;87;20289;-83
2022/08/07 04:26:17;;;;;;;;;;;;;;;18.14;62.86;100563.92;1485755;87;20287;-82
2022/08/07 04:28:43;;;;;;;;;;;;;;;18.19;62.99;100564.69;1489759;87;21015;-82
2022/08/07 04:31:10;;;;;;;;;;;;;;;18.21;63.07;100566.64;1492848;87;21660;-82
2022/08/07 04:33:36;;;;;;;;;;;;;;;18.17;62.88;100571.56;1483757;87;20327;-82
2022/08/07 04:36:04;;;;;;;;;;;;;;;18.20;62.67;100573.03;1486362;87;20437;-82
2022/08/07 04:38:30;;;;;;;;;;;;;;;18.27;63.09;100594.02;1482749;88;20421;-82
2022/08/07 04:40:56;;;;;;;;;;;;;;;18.23;62.77;100593.55;1485929;88;20251;-82
2022/08/07 04:43:26;;;;;;;;;;;;;;;18.26;62.63;100584.31;1482499;88;20779;-82
2022/08/07 04:46:08;;;;;;;;;;;;;;;18.27;63.15;100590.00;1483428;87;20259;-83
2022/08/07 04:48:53;;;;;;;;;;;;;;;18.28;62.90;100584.95;1483886;87;20221;-83
2022/08/07 04:51:26;;;;;;;;;;;;;;;18.30;62.08;100585.59;1490746;88;20795;-80
2022/08/07 04:53:58;;;;;;;;;;;;;;;18.34;62.08;100592.20;1484023;87;21133;-80
2022/08/07 04:56:27;;;;;;;;;;;;;;;18.37;62.07;100583.78;1486604;87;20273;-80
2022/08/07 04:58:58;;;;;;;;;;;;;;;18.41;61.67;100597.13;1487948;87;20392;-80
2022/08/07 05:01:36;;;;;;;;;;;;;;;18.42;61.50;100596.60;1484681;88;20407;-80
2022/08/07 05:04:11;;;;;;;;;;;;;;;18.45;61.38;100605.08;1481745;88;20362;-80
2022/08/07 05:06:44;;;;;;;;;;;;;;;18.46;61.39;100606.72;1484766;87;20333;-80
2022/08/07 05:09:17;;;;;;;;;;;;;;;18.45;61.05;100603.73;1489265;87;20236;-80
2022/08/07 05:11:45;;;;;;;;;;;;;;;18.52;60.90;100605.11;1474694;87;20274;-80
2022/08/07 05:14:15;;;;;;;;;;;;;;;18.57;60.92;100605.36;1484355;88;20236;-80
2022/08/07 05:16:46;;;;;;;;;;;;;;;18.64;60.85;100604.06;1489372;87;20340;-86
2022/08/07 05:19:13;;;;;;;;;;;;;;;18.75;60.55;100608.91;1488873;87;20244;-86
2022/08/07 05:21:41;;;;;;;;;;;;;;;18.83;59.97;100608.75;1496662;87;20325;-87
2022/08/07 05:24:12;;;;;;;;;;;;;;;18.91;59.59;100616.65;1482529;87;20244;-86
2022/08/07 05:26:40;;;;;;;;;;;;;;;19.01;59.73;100611.43;1490219;88;20258;-85
2022/08/07 05:29:07;;;;;;;;;;;;;;;19.11;59.72;100613.25;1496817;87;20810;-86
2022/08/07 05:31:37;;;;;;;;;;;;;;;19.21;59.46;100620.40;1491030;88;21526;-86
2022/08/07 05:34:05;;;;;;;;;;;;;;;19.34;58.80;100615.63;1492828;88;20222;-87
2022/08/07 05:36:32;;;;;;;;;;;;;;;19.40;58.40;100625.55;1491849;87;20288;-86
2022/08/07 05:38:59;;;;;;;;;;;;;;;19.43;57.61;100616.27;1488350;87;20302;-85
2022/08/07 05:41:25;;;;;;;;;;;;;;;19.48;57.48;100609.77;1485768;88;20392;-86
2022/08/07 05:43:54;;;;;;;;;;;;;;;19.45;57.34;100616.87;1483379;87;20824;-86
2022/08/07 05:46:21;;;;;;;;;;;;;;;19.58;57.44;100622.30;1486774;88;20288;-87
2022/08/07 05:48:49;;;;;;;;;;;;;;;19.63;56.85;100625.22;1490655;88;20800;-86
2022/08/07 05:51:15;;;;;;;;;;;;;;;19.64;56.93;100625.52;1495991;88;20838;-86
2022/08/07 05:53:41;;;;;;;;;;;;;;;19.60;56.58;100628.30;1485111;88;20383;-86
2022/08/07 05:56:09;;;;;;;;;;;;;;;19.66;56.68;100632.89;1480464;88;20287;-86
2022/08/07 05:58:35;;;;;;;;;;;;;;;19.72;56.78;100632.08;1487746;88;20317;-86
2022/08/07 06:01:02;;;;;;;;;;;;;;;19.87;56.55;100635.93;1486726;88;20338;-86
2022/08/07 06:03:29;;;;;;;;;;;;;;;19.94;56.28;100638.13;1489534;87;20771;-86
2022/08/07 06:05:56;;;;;;;;;;;;;;;20.03;56.40;100638.77;1489510;88;21493;-87
2022/08/07 06:08:22;;;;;;;;;;;;;;;20.07;56.09;100635.97;1494674;88;20340;-86
2022/08/07 06:10:49;;;;;;;;;;;;;;;20.12;55.70;100641.56;1491337;88;20318;-86
2022/08/07 06:13:15;;;;;;;;;;;;;;;20.08;55.87;100634.92;1489128;88;20773;-86
2022/08/07 06:15:42;;;;;;;;;;;;;;;19.94;55.89;100639.96;1480739;88;20459;-86
2022/08/07 06:18:10;;;;;;;;;;;;;;;19.92;56.29;100643.39;1487094;88;20885;-86
2022/08/07 06:20:36;;;;;;;;;;;;;;;20.03;56.05;100640.11;1483269;87;20332;-86
2022/08/07 06:23:04;;;;;;;;;;;;;;;19.99;55.88;100641.53;1485872;87;20258;-86
2022/08/07 06:25:30;;;;;;;;;;;;;;;19.96;55.72;100643.28;1497632;88;20280;-87
2022/08/07 06:28:07;;;;;;;;;;;;;;;19.94;55.73;100642.66;1480248;87;20296;-86
2022/08/07 06:30:37;;;;;;;;;;;;;;;20.01;55.87;100647.53;1475198;88;20399;-87
2022/08/07 06:33:03;;;;;;;;;;;;;;;19.90;55.58;100646.27;1481108;87;20274;-86
2022/08/07 06:35:29;;;;;;;;;;;;;;;20.02;55.99;100648.69;1474316;88;20649;-87
2022/08/07 06:37:57;;;;;;;;;;;;;;;20.11;56.43;100647.98;1491418;87;20252;-87
2022/08/07 06:40:23;;;;;;;;;;;;;;;20.14;55.63;100651.59;1471480;88;20773;-87
2022/08/07 06:42:50;;;;;;;;;;;;;;;20.03;55.73;100654.88;1473557;88;20303;-86
2022/08/07 06:45:18;;;;;;;;;;;;;;;20.03;55.52;100652.20;1475707;88;20333;-87
2022/08/07 06:47:45;;;;;;;;;;;;;;;20.10;55.57;100657.05;1472651;87;20318;-86
2022/08/07 06:50:11;;;;;;;;;;;;;;;20.04;55.61;100655.19;1476588;87;20310;-88
2022/08/07 06:52:39;;;;;;;;;;;;;;;19.91;56.01;100656.00;1483335;88;20773;-87
2022/08/07 06:55:09;;;;;;;;;;;;;;;20.00;56.29;100659.32;1474401;87;20274;-86
2022/08/07 06:57:36;;;;;;;;;;;;;;;19.93;56.30;100654.44;1475013;87;20423;-86
2022/08/07 07:00:03;;;;;;;;;;;;;;;19.98;56.63;100661.38;1477506;87;20282;-87
2022/08/07 07:02:29;;;;;;;;;;;;;;;20.06;56.68;100653.95;1481504;87;20870;-87
2022/08/07 07:04:55;;;;;;;;;;;;;;;20.02;56.43;100647.34;1473804;88;20318;-86
2022/08/07 07:07:21;;;;;;;;;;;;;;;20.02;56.20;100643.80;1476705;88;20788;-86
2022/08/07 07:09:48;;;;;;;;;;;;;;;20.11;56.46;100640.41;1474752;88;20311;-86
2022/08/07 07:12:40;;;;;;;;;;;;;;;20.28;56.60;100652.41;1484046;87;20281;-87
2022/08/07 07:15:24;;;;;;;;;;;;;;;20.42;56.30;100647.88;1472201;87;20327;-86
2022/08/07 07:17:57;;;;;;;;;;;;;;;20.52;55.50;100653.67;1480460;87;20289;-86
2022/08/07 07:20:26;;;;;;;;;;;;;;;20.65;55.19;100655.55;1477451;87;20266;-86
2022/08/07 07:22:53;;;;;;;;;;;;;;;20.72;54.85;100657.20;1474499;87;20237;-88
2022/08/07 07:25:19;;;;;;;;;;;;;;;20.75;54.33;100651.93;1471288;88;20318;-87
2022/08/07 07:28:16;;;;;;;;;;;;;;;20.84;53.77;100645.29;1478355;88;20796;-86
2022/08/07 07:30:44;;;;;;;;;;;;;;;20.88;53.99;100638.96;1471436;87;20374;-87
2022/08/07 07:33:13;;;;;;;;;;;;;;;21.08;53.95;100638.39;1468982;87;20347;-87
2022/08/07 07:35:42;;;;;;;;;;;;;;;21.23;53.62;100634.09;1473428;88;20311;-87
2022/08/07 07:38:09;;;;;;;;;;;;;;;21.16;52.61;100635.47;1478131;88;20399;-87
2022/08/07 07:40:36;;;;;;;;;;;;;;;21.14;52.56;100634.03;1480573;88;20266;-87
2022/08/07 07:43:04;;;;;;;;;;;;;;;21.29;52.95;100637.80;1480536;88;20230;-87
2022/08/07 07:45:30;;;;;;;;;;;;;;;21.34;52.40;100632.09;1475053;87;20237;-88
2022/08/07 07:47:57;;;;;;;;;;;;;;;21.30;52.38;100633.56;1478330;88;20261;-87
2022/08/07 07:50:24;;;;;;;;;;;;;;;21.42;52.15;100641.83;1478102;87;20780;-88
2022/08/07 07:52:51;;;;;;;;;;;;;;;21.45;51.85;100630.63;1477423;88;20456;-87
2022/08/07 07:55:18;;;;;;;;;;;;;;;21.65;51.92;100644.00;1476983;88;20848;-87
2022/08/07 07:57:45;;;;;;;;;;;;;;;21.84;51.93;100636.33;1480239;88;20282;-87
2022/08/07 08:00:12;;;;;;;;;;;;;;;21.96;51.36;100643.20;1478180;87;20358;-87
2022/08/07 08:02:42;;;;;;;;;;;;;;;21.95;50.48;100638.02;1482929;87;20357;-87
2022/08/07 08:05:10;;;;;;;;;;;;;;;22.14;50.67;100636.23;1477957;87;20853;-88
2022/08/07 08:07:37;;;;;;;;;;;;;;;22.27;50.61;100634.83;1476034;88;20340;-88
2022/08/07 08:10:06;;;;;;;;;;;;;;;22.36;49.79;100638.08;1470399;88;20333;-86
2022/08/07 08:12:33;;;;;;;;;;;;;;;22.38;49.35;100642.18;1480446;87;20302;-86
2022/08/07 08:15:00;;;;;;;;;;;;;;;22.46;49.67;100639.74;1481267;88;20288;-87
2022/08/07 08:17:27;;;;;;;;;;;;;;;22.55;48.95;100628.97;1481072;87;20289;-86
2022/08/07 08:20:00;;;;;;;;;;;;;;;22.66;48.82;100636.33;1477453;87;20312;-86
2022/08/07 08:27:57;;;;;;;;;;;;;;;22.96;48.03;100629.75;1462466;88;20972;-87
2022/08/07 08:30:24;;;;;;;;;;;;;;;23.00;47.67;100632.81;1475971;88;20514;-87
2022/08/07 08:32:56;;;;;;;;;;;;;;;23.00;47.41;100629.30;1478747;87;20295;-87
2022/08/07 08:35:26;;;;;;;;;;;;;;;23.14;47.67;100635.66;1475041;87;20311;-86
2022/08/07 08:37:58;;;;;;;;;;;;;;;22.99;46.89;100639.27;1479600;87;20326;-86
2022/08/07 08:40:37;;;;;;;;;;;;;;;23.04;47.20;100645.33;1479140;88;20356;-86
2022/08/07 08:43:18;;;;;;;;;;;;;;;23.06;46.87;100645.94;1481286;88;20244;-86
2022/08/07 08:45:57;;;;;;;;;;;;;;;23.18;47.41;100645.48;1475157;87;20416;-86
2022/08/07 08:48:48;;;;;;;;;;;;;;;23.18;47.19;100653.58;1475288;87;20258;-87
2022/08/07 08:51:20;;;;;;;;;;;;;;;23.10;46.43;100650.67;1428720;87;20385;-87
2022/08/07 08:53:48;;;;;;;;;;;;;;;23.18;46.91;100658.98;1476858;87;20244;-87
2022/08/07 08:56:17;;;;;;;;;;;;;;;23.10;46.45;100658.77;1469111;87;20260;-85
2022/08/07 08:58:58;;;;;;;;;;;;;;;23.13;47.31;100661.52;1477151;87;20296;-87
2022/08/07 09:01:27;;;;;;;;;;;;;;;23.19;46.67;100659.30;1476406;87;20281;-86
2022/08/07 09:04:09;;;;;;;;;;;;;;;23.12;46.07;100662.05;1476107;87;20245;-87
2022/08/07 09:06:44;;;;;;;;;;;;;;;23.13;46.10;100666.92;1475471;87;20914;-87
2022/08/07 09:09:44;;;;;;;;;;;;;;;23.35;45.49;100661.38;1468906;88;20401;-86
2022/08/07 09:12:16;;;;;;;;;;;;;;;23.55;44.88;100657.07;1474782;87;20296;-85
2022/08/07 09:14:52;;;;;;;;;;;;;;;23.97;44.91;100654.99;1483224;87;20348;-87
2022/08/07 09:17:31;;;;;;;;;;;;;;;24.14;44.81;100658.68;1475423;87;20296;-86
2022/08/07 09:20:00;;;;;;;;;;;;;;;24.20;43.08;100648.82;1475999;88;20297;-87
2022/08/07 09:22:47;;;;;;;;;;;;;;;24.38;44.00;100660.07;1476898;87;20288;-87
2022/08/07 09:25:26;;;;;;;;;;;;;;;24.81;42.79;100652.19;1476151;87;20259;-86
2022/08/07 09:28:02;;;;;;;;;;;;;;;24.94;42.69;100658.15;1478559;88;20245;-87
2022/08/07 09:30:50;;;;;;;;;;;;;;;25.13;42.22;100641.23;1480542;88;20265;-87
2022/08/07 09:33:28;;;;;;;;;;;;;;;25.27;42.51;100641.02;1480417;87;20370;-88
2022/08/07 09:36:01;;;;;;;;;;;;;;;25.18;41.71;100637.33;1487069;88;20295;-86
2022/08/07 09:38:36;;;;;;;;;;;;;;;25.14;41.91;100640.20;1489898;87;21140;-85
2022/08/07 09:41:26;;;;;;;;;;;;;;;25.11;41.81;100635.77;1492135;87;20281;-87
2022/08/07 09:44:10;;;;;;;;;;;;;;;25.10;41.83;100632.24;1489769;88;20273;-87
2022/08/07 09:46:39;;;;;;;;;;;;;;;25.16;42.42;100629.96;1481434;87;20273;-86
2022/08/07 09:49:14;;;;;;;;;;;;;;;25.04;41.71;100633.20;1484632;88;20378;-86
2022/08/07 09:52:01;;;;;;;;;;;;;;;25.19;41.55;100630.02;1487217;88;20280;-87
2022/08/07 09:54:31;;;;;;;;;;;;;;;25.64;41.92;100636.87;1482942;88;20817;-86
2022/08/07 09:57:03;;;;;;;;;;;;;;;25.91;40.33;100636.84;1490310;87;20454;-88
2022/08/07 09:59:39;;;;;;;;;;;;;;;25.91;39.74;100628.17;1491744;87;20796;-87
2022/08/07 10:02:20;;;;;;;;;;;;;;;26.01;40.31;100623.45;1486489;87;20250;-87
2022/08/07 10:05:03;;;;;;;;;;;;;;;25.96;39.79;100622.84;1490267;88;20273;-87
2022/08/07 10:07:56;;;;;;;;;;;;;;;26.08;39.89;100614.09;1485844;88;20809;-86
2022/08/07 10:10:43;;;;;;;;;;;;;;;26.08;39.44;100616.80;1489978;88;20705;-87
2022/08/07 10:13:46;;;;;;;;;;;;;;;25.65;40.03;100620.90;1481948;88;20377;-86
2022/08/07 10:16:22;;;;;;;;;;;;;;;25.77;40.72;100615.95;1481721;88;20377;-87
2022/08/07 10:19:02;;;;;;;;;;;;;;;25.95;39.53;100619.00;1480724;87;20280;-88
2022/08/07 10:21:50;;;;;;;;;;;;;;;25.87;39.00;100612.11;1483949;87;20412;-87
2022/08/07 10:24:44;;;;;;;;;;;;;;;25.54;39.93;100608.22;1483672;88;20869;-87
2022/08/07 10:27:46;;;;;;;;;;;;;;;25.44;40.18;100600.73;1488831;87;20281;-87
2022/08/07 10:30:22;;;;;;;;;;;;;;;25.54;39.97;100611.47;1485164;87;20355;-87
2022/08/07 10:33:15;;;;;;;;;;;;;;;25.78;39.99;100606.74;1476843;87;20890;-87
2022/08/07 10:36:05;;;;;;;;;;;;;;;25.94;39.39;100616.83;1474476;87;20304;-86
2022/08/07 10:38:58;;;;;;;;;;;;;;;26.32;39.90;100609.86;1475577;87;20444;-87
2022/08/07 10:41:37;;;;;;;;;;;;;;;26.18;39.10;100615.32;1480071;87;20403;-86
2022/08/07 10:44:13;;;;;;;;;;;;;;;26.40;38.16;100609.98;1479369;87;20252;-87
2022/08/07 10:46:48;;;;;;;;;;;;;;;26.66;37.65;100601.70;1483092;88;20410;-86
2022/08/07 10:49:20;;;;;;;;;;;;;;;26.91;37.63;100595.81;1469343;87;20281;-87
2022/08/07 10:51:56;;;;;;;;;;;;;;;27.10;37.17;100597.66;1482960;88;20253;-87
2022/08/07 10:54:34;;;;;;;;;;;;;;;26.96;36.77;100588.55;1476826;87;20344;-86
2022/08/07 10:57:17;;;;;;;;;;;;;;;26.93;37.28;100590.92;1473482;87;20326;-87
2022/08/07 10:59:59;;;;;;;;;;;;;;;27.06;36.01;100594.64;1483903;87;20244;-87
2022/08/07 11:02:37;;;;;;;;;;;;;;;26.80;36.12;100596.20;1473971;88;20295;-87
2022/08/07 11:05:41;;;;;;;;;;;;;;;26.61;37.15;100595.66;1479511;87;20266;-86
2022/08/07 11:08:14;;;;;;;;;;;;;;;26.33;36.34;100591.17;1473547;87;20259;-86
2022/08/07 11:10:46;;;;;;;;;;;;;;;26.11;37.77;100597.33;1478135;88;20363;-87
2022/08/07 11:13:37;;;;;;;;;;;;;;;25.98;37.77;100589.53;1477248;87;20348;-87
2022/08/07 11:16:07;;;;;;;;;;;;;;;26.44;37.98;100584.83;1471152;87;20266;-87
2022/08/07 11:18:45;;;;;;;;;;;;;;;26.78;36.07;100582.05;1472528;88;20296;-88
2022/08/07 11:21:35;;;;;;;;;;;;;;;26.89;35.83;100579.75;1472491;88;20237;-87
2022/08/07 11:24:04;;;;;;;;;;;;;;;27.10;36.24;100575.93;1448960;88;20310;-86
2022/08/07 11:26:34;;;;;;;;;;;;;;;27.04;35.40;100567.44;1477532;87;20296;-87
2022/08/07 11:29:12;;;;;;;;;;;;;;;27.06;35.13;100566.66;1479073;88;20266;-87
2022/08/07 11:32:06;;;;;;;;;;;;;;;27.31;35.55;100558.83;1476331;87;20245;-88
2022/08/07 11:34:48;;;;;;;;;;;;;;;27.41;34.63;100552.67;1484216;87;20414;-88
2022/08/07 11:37:38;;;;;;;;;;;;;;;27.47;34.33;100560.34;1475171;88;20824;-87
2022/08/07 11:40:24;;;;;;;;;;;;;;;27.48;34.62;100553.81;1475795;87;20310;-87
2022/08/07 11:42:54;;;;;;;;;;;;;;;27.60;34.37;100539.55;1479806;88;20296;-87
2022/08/07 11:45:42;;;;;;;;;;;;;;;27.50;34.80;100546.23;1484435;87;20282;-88
2022/08/07 11:48:36;;;;;;;;;;;;;;;27.63;33.68;100545.28;1477595;87;20266;-86
2022/08/07 11:51:21;;;;;;;;;;;;;;;27.66;33.91;100543.95;1479920;87;20295;-87
2022/08/07 11:53:54;;;;;;;;;;;;;;;27.81;33.55;100537.30;1477411;88;20969;-87
2022/08/07 11:56:29;;;;;;;;;;;;;;;27.64;33.29;100537.94;1479368;87;20340;-87
2022/08/07 11:59:08;;;;;;;;;;;;;;;27.73;33.27;100535.02;1480064;88;20274;-87
2022/08/07 12:01:49;;;;;;;;;;;;;;;27.75;33.34;100523.91;1427630;87;20353;-85
2022/08/07 12:04:40;;;;;;;;;;;;;;;27.56;33.35;100528.89;1485027;87;20296;-87
2022/08/07 12:07:14;;;;;;;;;;;;;;;27.58;33.52;100530.82;1482926;87;20389;-88
2022/08/07 12:10:06;;;;;;;;;;;;;;;27.55;33.42;100524.00;1486748;88;20296;-87
2022/08/07 12:12:42;;;;;;;;;;;;;;;27.86;33.79;100516.95;1430068;91;20487;-88
2022/08/07 12:15:20;;;;;;;;;;;;;;;28.22;33.72;100513.66;1433059;91;20316;-86
2022/08/07 12:17:49;;;;;;;;;;;;;;;28.26;32.68;100516.96;1423176;91;20345;-87
2022/08/07 12:20:22;;;;;;;;;;;;;;;28.18;32.48;100513.37;1435585;91;20286;-87
2022/08/07 12:23:20;;;;;;;;;;;;;;;27.96;33.17;100515.39;1427771;91;20549;-87
2022/08/07 12:25:55;;;;;;;;;;;;;;;28.21;32.49;100515.56;1431670;91;20999;-87
2022/08/07 12:28:37;;;;;;;;;;;;;;;28.52;32.81;100503.53;1422086;91;20346;-87
2022/08/07 12:31:06;;;;;;;;;;;;;;;28.72;32.16;100506.88;1431823;91;20368;-87
2022/08/07 12:33:34;;;;;;;;;;;;;;;28.74;32.33;100505.53;1427775;91;20325;-88
2022/08/07 12:36:01;;;;;;;;;;;;;;;28.59;31.66;100498.64;1432947;91;20458;-87
2022/08/07 12:38:28;;;;;;;;;;;;;;;28.74;31.67;100510.98;1434152;91;20248;-88
2022/08/07 12:40:56;;;;;;;;;;;;;;;28.84;31.51;100499.84;1432417;91;20278;-88
2022/08/07 12:43:24;;;;;;;;;;;;;;;28.98;31.40;100503.70;1435574;91;20926;-87
2022/08/07 12:46:27;;;;;;;;;;;;;;;29.12;31.02;100496.69;1440172;91;20411;-87
2022/08/07 12:49:09;;;;;;;;;;;;;;;28.92;31.30;100497.97;1438204;89;21086;-87
2022/08/07 12:51:43;;;;;;;;;;;;;;;29.24;31.55;100496.43;1445779;90;20286;-88
2022/08/07 12:54:22;;;;;;;;;;;;;;;29.20;31.03;100496.16;1442602;90;20309;-88
2022/08/07 12:56:50;;;;;;;;;;;;;;;29.17;30.70;100502.13;1449665;90;20345;-86
2022/08/07 12:59:18;;;;;;;;;;;;;;;29.15;31.33;100488.52;1448766;90;20293;-86
2022/08/07 13:01:57;;;;;;;;;;;;;;;29.35;30.48;100497.27;1442214;90;20293;-87
2022/08/07 13:04:49;;;;;;;;;;;;;;;29.41;30.62;100492.09;1451219;90;20330;-89